Time;durP1;ratioP1;P1;durP2;ratioP2;P2;SDS_P1;SDS_P2;PMS_P1;PMS_P2;Temp;Humidity;BMP_temperature;BMP_pressure;BME280_temperature;BME280_humidity;BME280_pressure;Samples;Min_cycle;Max_cycle;Signal;HPM_P1;HPM_P2
2023/07/10 00:02:12;;;;;;;7.43;6.80;;;;;;;21.74;100.00;100570.47;4974417;28;20215;-80
2023/07/10 00:04:40;;;;;;;5.80;5.40;;;;;;;21.86;100.00;100566.19;4974490;28;20403;-82
2023/07/10 00:07:06;;;;;;;6.67;6.07;;;;;;;21.95;100.00;100579.75;4973545;28;20228;-79
2023/07/10 00:09:33;;;;;;;6.17;5.60;;;;;;;22.00;99.77;100585.63;4974543;28;20204;-81
2023/07/10 00:11:59;;;;;;;6.37;5.87;;;;;;;22.06;100.00;100576.41;4974849;28;20212;-81
2023/07/10 00:14:25;;;;;;;6.33;5.73;;;;;;;22.05;100.00;100577.34;4973659;28;20208;-82
2023/07/10 00:16:53;;;;;;;6.60;6.10;;;;;;;22.01;100.00;100578.50;4973554;28;20227;-82
2023/07/10 00:19:20;;;;;;;5.97;5.47;;;;;;;22.06;98.75;100594.13;4966662;28;20231;-82
2023/07/10 00:21:47;;;;;;;6.37;5.83;;;;;;;22.09;97.65;100608.09;4974207;28;20219;-81
2023/07/10 00:24:14;;;;;;;6.60;5.87;;;;;;;22.13;97.42;100622.91;4973402;28;20660;-80
2023/07/10 00:26:42;;;;;;;6.03;5.53;;;;;;;22.16;96.81;100624.50;4974485;28;20251;-81
2023/07/10 00:29:15;;;;;;;5.57;5.17;;;;;;;22.21;96.65;100633.03;4976004;28;20210;-81
2023/07/10 00:31:42;;;;;;;6.37;5.87;;;;;;;22.21;95.76;100641.03;4978013;28;20512;-82
2023/07/10 00:34:13;;;;;;;6.67;5.73;;;;;;;22.17;95.97;100650.16;4978011;28;20223;-81
2023/07/10 00:36:41;;;;;;;5.30;4.80;;;;;;;22.16;96.31;100645.75;4977788;28;20232;-80
2023/07/10 00:39:18;;;;;;;6.17;5.57;;;;;;;22.13;96.20;100645.97;4977248;28;20255;-80
2023/07/10 00:41:47;;;;;;;10.23;6.17;;;;;;;22.15;96.29;100646.72;4959480;28;20213;-81
2023/07/10 00:44:14;;;;;;;6.00;5.60;;;;;;;22.14;96.66;100637.91;4958360;28;20213;-82
2023/07/10 00:46:47;;;;;;;5.67;5.10;;;;;;;22.16;96.29;100635.13;4958004;28;20228;-82
2023/07/10 00:49:19;;;;;;;5.50;5.00;;;;;;;22.15;95.92;100634.28;4972569;28;20212;-82
2023/07/10 00:51:56;;;;;;;6.23;5.73;;;;;;;22.13;96.38;100606.09;4977788;28;20556;-80
2023/07/10 00:54:30;;;;;;;6.43;5.83;;;;;;;22.06;97.59;100576.41;4977333;28;20215;-80
2023/07/10 00:56:59;;;;;;;6.33;5.67;;;;;;;21.97;98.93;100558.38;4977565;28;20232;-81
2023/07/10 00:59:27;;;;;;;6.70;6.00;;;;;;;21.97;98.54;100545.09;4977699;28;20575;-82
2023/07/10 01:02:18;;;;;;;6.80;6.20;;;;;;;21.70;100.00;100542.41;4977216;28;20209;-81
2023/07/10 01:04:48;;;;;;;5.77;5.27;;;;;;;21.62;100.00;100511.00;4968713;28;20250;-80
2023/07/10 01:07:17;;;;;;;6.87;6.27;;;;;;;21.59;100.00;100517.38;4976664;28;20254;-82
2023/07/10 01:09:50;;;;;;;6.83;6.23;;;;;;;21.65;100.00;100507.31;4977618;28;20200;-82
2023/07/10 01:12:17;;;;;;;6.20;5.70;;;;;;;21.73;100.00;100532.44;4977961;28;20626;-83
2023/07/10 01:14:43;;;;;;;5.60;5.17;;;;;;;21.74;100.00;100547.44;4977119;28;20212;-81
2023/07/10 01:17:10;;;;;;;6.90;6.43;;;;;;;21.80;100.00;100564.78;4976521;28;20619;-81
2023/07/10 01:19:39;;;;;;;5.60;5.10;;;;;;;21.84;99.71;100558.31;4977338;28;20682;-82
2023/07/10 01:22:09;;;;;;;6.30;5.80;;;;;;;21.88;98.95;100557.16;4976532;28;20204;-79
2023/07/10 01:24:36;;;;;;;6.93;5.30;;;;;;;21.87;98.42;100571.41;4977273;28;20208;-82
2023/07/10 01:27:04;;;;;;;5.97;5.47;;;;;;;21.81;98.60;100574.47;4977168;28;20252;-81
2023/07/10 01:29:35;;;;;;;6.40;5.90;;;;;;;21.78;98.34;100588.81;4976815;28;20211;-81
2023/07/10 01:32:03;;;;;;;8.07;7.20;;;;;;;21.65;100.00;100561.31;4977178;28;20223;-80
2023/07/10 01:34:37;;;;;;;7.20;6.60;;;;;;;21.51;100.00;100537.41;4976896;28;20208;-81
2023/07/10 01:37:05;;;;;;;7.53;6.67;;;;;;;21.41;100.00;100529.16;4976585;28;20626;-83
2023/07/10 01:39:38;;;;;;;7.03;6.43;;;;;;;21.33;100.00;100544.72;4976621;28;20603;-83
2023/07/10 01:42:05;;;;;;;8.53;7.77;;;;;;;20.82;100.00;100506.19;4977236;28;20224;-80
2023/07/10 01:44:34;;;;;;;7.90;7.33;;;;;;;20.67;100.00;100464.66;4976128;28;20208;-82
2023/07/10 01:47:03;;;;;;;9.20;7.67;;;;;;;20.65;100.00;100449.78;4971965;28;20229;-82
2023/07/10 01:49:33;;;;;;;11.50;7.73;;;;;;;20.89;100.00;100472.19;4963947;28;20212;-80
2023/07/10 01:52:02;;;;;;;7.67;6.90;;;;;;;20.93;100.00;100491.41;4976404;28;20208;-81
2023/07/10 01:54:28;;;;;;;6.70;6.10;;;;;;;21.07;100.00;100514.44;4976319;28;20644;-80
2023/07/10 01:56:56;;;;;;;7.00;6.40;;;;;;;21.12;100.00;100518.53;4976465;28;20236;-82
2023/07/10 01:59:22;;;;;;;7.27;6.67;;;;;;;21.26;100.00;100527.44;4976329;28;20215;-80
2023/07/10 02:01:50;;;;;;;8.03;6.50;;;;;;;21.28;100.00;100530.84;4976147;28;20566;-81
2023/07/10 02:04:17;;;;;;;10.93;6.63;;;;;;;21.35;100.00;100519.75;4980818;28;20212;-82
2023/07/10 02:06:43;;;;;;;16.77;6.90;;;;;;;21.41;100.00;100522.03;4961047;28;20232;-82
2023/07/10 02:09:10;;;;;;;9.80;6.27;;;;;;;21.46;100.00;100519.09;4956752;28;20213;-82
2023/07/10 02:11:37;;;;;;;6.60;5.93;;;;;;;21.48;100.00;100511.03;4973235;28;20694;-79
2023/07/10 02:14:06;;;;;;;7.40;6.80;;;;;;;21.52;100.00;100518.72;4975167;28;20671;-82
2023/07/10 02:16:32;;;;;;;9.40;6.60;;;;;;;21.55;100.00;100536.28;4976026;28;20239;-82
2023/07/10 02:18:59;;;;;;;8.53;6.00;;;;;;;21.55;100.00;100547.75;4975986;28;20208;-81
2023/07/10 02:21:26;;;;;;;6.87;5.70;;;;;;;21.36;100.00;100561.28;4975589;28;20659;-80
2023/07/10 02:23:52;;;;;;;13.47;6.30;;;;;;;21.41;100.00;100547.72;4975463;28;20607;-82
2023/07/10 02:26:19;;;;;;;12.27;7.77;;;;;;;21.27;100.00;100559.22;4976532;28;20245;-82
2023/07/10 02:28:46;;;;;;;11.33;6.70;;;;;;;21.25;100.00;100553.16;4975673;28;20683;-80
2023/07/10 02:31:14;;;;;;;10.17;6.70;;;;;;;21.33;100.00;100557.97;4975982;28;20878;-80
2023/07/10 02:33:40;;;;;;;22.17;7.57;;;;;;;21.39;100.00;100553.13;4976486;28;20223;-81
2023/07/10 02:36:07;;;;;;;15.70;6.33;;;;;;;21.43;100.00;100559.16;4976859;28;20240;-81
2023/07/10 02:38:34;;;;;;;20.37;6.07;;;;;;;21.41;100.00;100561.84;4976498;28;20574;-82
2023/07/10 02:41:00;;;;;;;14.20;6.63;;;;;;;21.42;100.00;100579.47;4981021;28;20196;-82
2023/07/10 02:43:27;;;;;;;14.53;7.30;;;;;;;21.44;100.00;100602.47;4966699;28;20213;-82
2023/07/10 02:45:53;;;;;;;12.53;6.43;;;;;;;21.46;100.00;100611.22;4975769;28;20212;-83
2023/07/10 02:48:21;;;;;;;10.57;6.00;;;;;;;21.44;100.00;100599.81;4976442;28;20212;-80
2023/07/10 02:50:48;;;;;;;9.47;6.47;;;;;;;21.44;100.00;100603.34;4975896;28;20674;-82
2023/07/10 02:53:15;;;;;;;10.03;6.40;;;;;;;21.40;100.00;100599.97;4976131;28;20231;-82
2023/07/10 02:55:41;;;;;;;7.47;6.13;;;;;;;21.38;100.00;100593.06;4976861;28;20220;-82
2023/07/10 02:58:08;;;;;;;9.40;6.47;;;;;;;21.33;100.00;100557.97;4976265;28;20232;-81
2023/07/10 03:00:34;;;;;;;10.23;6.33;;;;;;;21.29;100.00;100564.41;4976934;28;20479;-82
2023/07/10 03:03:01;;;;;;;8.83;5.60;;;;;;;21.31;100.00;100579.31;4976214;28;20219;-83
2023/07/10 03:05:29;;;;;;;6.63;5.90;;;;;;;21.35;100.00;100588.78;4977121;28;20589;-82
2023/07/10 03:07:55;;;;;;;6.13;5.63;;;;;;;21.38;100.00;100591.25;4976081;28;20235;-83
2023/07/10 03:10:22;;;;;;;6.63;5.87;;;;;;;21.39;100.00;100590.31;4977416;28;20212;-83
2023/07/10 03:12:49;;;;;;;6.90;6.30;;;;;;;21.41;100.00;100596.38;4976404;28;20344;-83
2023/07/10 03:15:15;;;;;;;9.50;5.50;;;;;;;21.44;100.00;100608.63;4976985;28;20204;-83
2023/07/10 03:17:42;;;;;;;6.60;6.00;;;;;;;21.36;100.00;100614.38;4975972;28;20232;-83
2023/07/10 03:20:09;;;;;;;6.60;5.70;;;;;;;21.32;100.00;100596.94;4976914;28;20231;-83
2023/07/10 03:22:37;;;;;;;8.90;6.57;;;;;;;21.38;100.00;100599.22;4976546;28;20214;-82
2023/07/10 03:25:04;;;;;;;8.90;5.37;;;;;;;21.41;100.00;100607.00;4976880;28;20706;-83
2023/07/10 03:27:31;;;;;;;5.80;5.30;;;;;;;21.42;100.00;100611.34;4977795;28;20239;-82
2023/07/10 03:29:57;;;;;;;6.23;5.47;;;;;;;21.48;100.00;100617.28;4978225;28;20218;-83
2023/07/10 03:32:24;;;;;;;6.67;5.47;;;;;;;21.38;100.00;100615.16;4983371;28;20218;-80
2023/07/10 03:34:51;;;;;;;11.37;5.00;;;;;;;21.28;100.00;100599.88;4959454;28;20205;-81
2023/07/10 03:37:18;;;;;;;8.40;5.33;;;;;;;21.13;100.00;100605.19;4954175;28;20236;-83
2023/07/10 03:39:46;;;;;;;12.03;5.87;;;;;;;21.15;100.00;100592.69;4955540;28;20215;-81
2023/07/10 03:42:12;;;;;;;8.03;6.43;;;;;;;20.59;100.00;100554.44;4956772;28;20211;-81
2023/07/10 03:44:39;;;;;;;9.13;5.70;;;;;;;20.42;100.00;100491.78;4954967;28;20205;-80
2023/07/10 03:47:06;;;;;;;9.57;5.83;;;;;;;20.46;100.00;100487.16;4954458;28;20737;-80
2023/07/10 03:49:33;;;;;;;7.53;5.73;;;;;;;20.57;100.00;100488.22;4962273;28;20211;-80
2023/07/10 03:51:59;;;;;;;13.73;5.93;;;;;;;20.53;100.00;100507.03;4974433;28;20208;-80
2023/07/10 03:54:26;;;;;;;11.90;6.70;;;;;;;20.19;100.00;100472.75;4973965;28;20219;-81
2023/07/10 03:56:54;;;;;;;13.20;7.57;;;;;;;20.07;100.00;100439.03;4974047;28;20239;-80
2023/07/10 03:59:20;;;;;;;12.83;6.37;;;;;;;19.89;100.00;100422.41;4973994;28;20200;-81
2023/07/10 04:01:47;;;;;;;12.83;6.90;;;;;;;19.74;100.00;100424.19;4974013;28;20219;-81
2023/07/10 04:04:13;;;;;;;8.00;6.30;;;;;;;19.83;100.00;100430.72;4976480;28;20212;-80
2023/07/10 04:06:40;;;;;;;8.43;6.40;;;;;;;20.07;100.00;100440.84;4977862;28;20722;-83
2023/07/10 04:09:06;;;;;;;10.13;6.77;;;;;;;20.00;100.00;100433.25;4977770;28;20591;-80
2023/07/10 04:11:33;;;;;;;7.10;6.37;;;;;;;20.00;100.00;100450.97;4978397;28;20211;-80
2023/07/10 04:14:00;;;;;;;11.67;6.67;;;;;;;20.01;100.00;100463.25;4983321;28;20209;-81
2023/07/10 04:16:28;;;;;;;8.60;6.53;;;;;;;19.84;100.00;100465.09;4958386;28;20240;-80
2023/07/10 04:18:56;;;;;;;8.97;7.03;;;;;;;19.74;100.00;100460.38;4960933;28;20219;-81
2023/07/10 04:21:25;;;;;;;8.50;6.83;;;;;;;19.72;100.00;100455.19;4977454;28;20215;-81
2023/07/10 04:23:52;;;;;;;10.37;6.87;;;;;;;19.67;100.00;100475.75;4977380;28;20213;-80
2023/07/10 04:26:20;;;;;;;13.97;6.97;;;;;;;19.82;100.00;100471.38;4978296;28;20228;-80
2023/07/10 04:28:48;;;;;;;11.03;6.67;;;;;;;19.66;100.00;100468.72;4977577;28;20227;-80
2023/07/10 04:31:17;;;;;;;9.97;6.80;;;;;;;19.74;100.00;100489.50;4977633;28;20212;-81
2023/07/10 04:33:44;;;;;;;7.27;6.67;;;;;;;19.77;100.00;100510.53;4977644;28;20213;-82
2023/07/10 04:36:11;;;;;;;7.80;7.10;;;;;;;19.72;100.00;100509.94;4970014;28;20228;-80
2023/07/10 04:38:38;;;;;;;9.67;7.17;;;;;;;19.81;100.00;100504.13;4977023;28;20781;-80
2023/07/10 04:41:07;;;;;;;9.63;7.50;;;;;;;19.70;100.00;100485.31;4977533;28;20219;-81
2023/07/10 04:43:34;;;;;;;11.63;6.37;;;;;;;19.83;100.00;100519.00;4976955;28;20671;-80
2023/07/10 04:46:03;;;;;;;9.10;7.90;;;;;;;19.59;100.00;100518.53;4977738;28;20671;-81
2023/07/10 04:48:31;;;;;;;7.80;7.00;;;;;;;19.70;100.00;100493.25;4977350;28;20372;-79
2023/07/10 04:51:01;;;;;;;10.53;8.20;;;;;;;19.59;100.00;100497.34;4975642;28;20212;-81
2023/07/10 04:53:28;;;;;;;12.07;9.40;;;;;;;19.62;100.00;100531.63;4971236;28;20287;-80
2023/07/10 04:55:54;;;;;;;15.77;10.33;;;;;;;19.76;100.00;100533.53;4977501;28;20212;-83
2023/07/10 04:58:23;;;;;;;10.50;9.60;;;;;;;19.91;100.00;100546.84;4978341;28;20234;-82
2023/07/10 05:00:53;;;;;;;10.13;9.33;;;;;;;20.03;100.00;100524.97;4974743;28;20248;-81
2023/07/10 05:03:19;;;;;;;13.17;9.83;;;;;;;19.94;100.00;100522.81;4971445;28;20212;-79
2023/07/10 05:05:53;;;;;;;11.60;10.20;;;;;;;19.96;100.00;100534.19;4977703;28;20679;-80
2023/07/10 05:08:21;;;;;;;11.73;10.50;;;;;;;20.00;100.00;100522.50;4969828;28;20224;-82
2023/07/10 05:10:50;;;;;;;11.63;10.63;;;;;;;20.15;100.00;100532.19;4980959;28;20267;-80
2023/07/10 05:13:17;;;;;;;12.53;11.53;;;;;;;20.18;100.00;100526.75;4976921;28;20206;-79
2023/07/10 05:15:43;;;;;;;14.30;10.73;;;;;;;20.24;100.00;100533.47;4977619;28;20217;-83
2023/07/10 05:18:10;;;;;;;12.10;10.97;;;;;;;20.24;100.00;100574.09;4956779;28;20247;-83
2023/07/10 05:20:36;;;;;;;12.30;11.23;;;;;;;20.31;100.00;100536.63;5012593;23;20239;-82
2023/07/10 05:23:04;;;;;;;11.93;10.83;;;;;;;20.36;100.00;100548.69;5030172;28;20211;-81
2023/07/10 05:25:33;;;;;;;13.77;12.30;;;;;;;20.21;100.00;100568.97;5029700;28;20209;-84
2023/07/10 05:28:01;;;;;;;13.57;12.23;;;;;;;20.39;100.00;100561.75;5029227;28;20234;-82
2023/07/10 05:30:28;;;;;;;13.73;12.43;;;;;;;20.40;100.00;100573.22;5027971;28;20249;-82
2023/07/10 05:33:02;;;;;;;14.43;13.33;;;;;;;20.57;100.00;100551.00;5018069;28;20202;-79
2023/07/10 05:35:29;;;;;;;14.03;12.83;;;;;;;20.67;100.00;100560.16;5004927;28;20219;-84
2023/07/10 05:37:56;;;;;;;15.03;13.63;;;;;;;20.62;100.00;100567.53;5008630;28;20207;-83
2023/07/10 05:40:24;;;;;;;15.17;13.90;;;;;;;20.63;100.00;100578.06;5019382;28;20222;-83
2023/07/10 05:42:50;;;;;;;16.57;15.27;;;;;;;20.40;100.00;100565.25;5019279;28;20214;-81
2023/07/10 05:45:17;;;;;;;17.03;15.37;;;;;;;20.42;100.00;100571.34;5017298;28;20199;-81
2023/07/10 05:47:43;;;;;;;18.33;16.93;;;;;;;20.42;100.00;100580.13;5020864;28;20219;-83
2023/07/10 05:50:10;;;;;;;18.53;17.13;;;;;;;20.51;100.00;100562.81;5018562;28;20280;-84
2023/07/10 05:52:36;;;;;;;18.93;17.53;;;;;;;20.58;100.00;100585.41;5018287;28;20274;-83
2023/07/10 05:55:03;;;;;;;19.33;17.93;;;;;;;20.59;100.00;100588.94;5018085;28;20273;-84
2023/07/10 05:57:31;;;;;;;19.20;17.50;;;;;;;20.68;100.00;100622.03;5019410;28;20207;-83
2023/07/10 05:59:57;;;;;;;20.50;18.70;;;;;;;20.72;100.00;100597.03;5018692;28;20215;-83
2023/07/10 06:02:24;;;;;;;21.77;19.50;;;;;;;20.75;100.00;100602.16;5020077;28;20629;-83
2023/07/10 06:04:50;;;;;;;21.27;19.00;;;;;;;20.65;100.00;100608.94;5008446;28;20204;-84
2023/07/10 06:07:17;;;;;;;20.40;18.70;;;;;;;20.69;100.00;100600.72;5002774;28;20227;-84
2023/07/10 06:09:43;;;;;;;20.53;18.93;;;;;;;20.62;100.00;100610.84;5019904;28;20227;-83
2023/07/10 06:12:10;;;;;;;20.40;18.70;;;;;;;20.69;100.00;100615.78;5018926;28;20217;-83
2023/07/10 06:14:38;;;;;;;23.43;19.67;;;;;;;20.62;100.00;100616.13;5019581;28;20225;-83
2023/07/10 06:17:05;;;;;;;20.80;19.00;;;;;;;20.48;100.00;100636.41;5010545;28;20211;-83
2023/07/10 06:19:31;;;;;;;19.17;17.77;;;;;;;20.53;100.00;100623.72;5019235;28;20210;-82
2023/07/10 06:22:08;;;;;;;21.10;19.43;;;;;;;20.49;100.00;100636.31;5017700;28;20210;-83
2023/07/10 06:24:35;;;;;;;21.63;19.60;;;;;;;20.51;100.00;100637.06;5012693;28;20214;-82
2023/07/10 06:27:02;;;;;;;19.90;18.47;;;;;;;20.67;100.00;100644.19;5008790;28;20244;-83
2023/07/10 06:29:29;;;;;;;20.83;19.03;;;;;;;20.72;100.00;100642.13;5007990;28;20237;-83
2023/07/10 06:31:57;;;;;;;18.80;17.23;;;;;;;20.83;100.00;100648.53;5008348;28;20207;-83
2023/07/10 06:34:23;;;;;;;17.60;16.30;;;;;;;20.95;100.00;100654.03;5018109;28;20215;-83
2023/07/10 06:36:49;;;;;;;17.47;16.00;;;;;;;20.83;100.00;100666.22;5000826;28;20233;-83
2023/07/10 06:39:16;;;;;;;16.10;14.60;;;;;;;20.82;100.00;100659.22;5018395;28;20203;-80
2023/07/10 06:41:43;;;;;;;18.43;16.77;;;;;;;20.72;100.00;100664.22;5010939;28;20243;-81
2023/07/10 06:44:09;;;;;;;17.23;15.80;;;;;;;20.58;100.00;100675.56;5015442;28;20199;-81
2023/07/10 06:46:36;;;;;;;19.03;17.37;;;;;;;20.20;100.00;100657.38;5017832;28;20213;-82
2023/07/10 06:49:03;;;;;;;19.97;18.47;;;;;;;20.07;100.00;100656.34;5016927;28;20221;-84
2023/07/10 06:51:30;;;;;;;19.87;18.27;;;;;;;19.99;100.00;100677.97;5017009;28;20344;-83
2023/07/10 06:53:57;;;;;;;20.57;18.87;;;;;;;20.11;100.00;100673.78;5016607;28;20203;-84
2023/07/10 06:56:23;;;;;;;21.23;19.47;;;;;;;19.88;100.00;100688.31;5017652;28;20207;-83
2023/07/10 06:58:50;;;;;;;21.17;19.13;;;;;;;19.87;100.00;100683.09;5010004;28;20218;-84
2023/07/10 07:01:16;;;;;;;19.90;18.40;;;;;;;19.80;100.00;100686.06;5015939;28;20226;-84
2023/07/10 07:03:43;;;;;;;24.10;20.63;;;;;;;19.79;100.00;100664.94;5016625;28;20203;-84
2023/07/10 07:06:10;;;;;;;19.20;17.33;;;;;;;19.98;100.00;100701.88;4998588;28;20214;-84
2023/07/10 07:08:37;;;;;;;19.20;17.60;;;;;;;19.75;100.00;100676.66;5009567;28;20233;-83
2023/07/10 07:11:03;;;;;;;17.73;16.43;;;;;;;19.75;100.00;100693.38;5015375;28;20233;-84
2023/07/10 07:13:30;;;;;;;18.23;16.73;;;;;;;19.86;100.00;100678.72;5016162;28;20203;-83
2023/07/10 07:15:57;;;;;;;17.80;16.27;;;;;;;19.87;100.00;100677.78;5015460;28;20274;-84
2023/07/10 07:18:25;;;;;;;15.90;14.60;;;;;;;19.90;100.00;100678.47;5015543;28;20661;-83
2023/07/10 07:20:51;;;;;;;14.70;13.50;;;;;;;19.91;100.00;100680.19;5016251;28;20245;-83
2023/07/10 07:23:19;;;;;;;15.77;14.40;;;;;;;19.93;100.00;100677.44;5007999;28;20202;-82
2023/07/10 07:25:45;;;;;;;13.37;12.37;;;;;;;20.07;100.00;100674.91;5017488;28;20203;-82
2023/07/10 07:28:13;;;;;;;12.40;11.40;;;;;;;20.27;100.00;100710.06;5013813;28;20238;-82
2023/07/10 07:30:40;;;;;;;12.10;11.10;;;;;;;20.28;100.00;100701.16;5010775;28;20222;-83
2023/07/10 07:33:07;;;;;;;12.23;11.23;;;;;;;20.17;100.00;100689.34;5014531;28;20206;-83
2023/07/10 07:35:37;;;;;;;12.40;11.50;;;;;;;20.20;100.00;100686.53;5002387;28;20686;-83
2023/07/10 07:38:04;;;;;;;12.53;11.47;;;;;;;20.19;100.00;100694.56;5003253;28;20206;-83
2023/07/10 07:40:32;;;;;;;13.20;12.30;;;;;;;20.08;100.00;100718.16;5006932;28;20237;-84
2023/07/10 07:42:58;;;;;;;12.77;11.80;;;;;;;19.96;100.00;100675.50;5023220;28;20214;-82
2023/07/10 07:45:25;;;;;;;11.50;10.63;;;;;;;19.94;100.00;100705.66;5016740;28;20208;-82
2023/07/10 07:47:52;;;;;;;11.60;10.70;;;;;;;19.87;100.00;100713.06;5015653;28;20594;-82
2023/07/10 07:50:18;;;;;;;11.20;10.30;;;;;;;19.87;100.00;100686.59;5015920;28;20224;-83
2023/07/10 07:52:45;;;;;;;11.23;10.37;;;;;;;19.83;100.00;100720.31;5014931;28;20199;-79
2023/07/10 07:55:11;;;;;;;10.63;9.77;;;;;;;19.61;100.00;100682.66;5016287;28;20215;-82
2023/07/10 07:57:50;;;;;;;10.53;9.73;;;;;;;19.64;100.00;100712.47;5016122;28;20214;-80
2023/07/10 08:00:17;;;;;;;11.13;10.23;;;;;;;19.63;100.00;100681.63;5016582;28;20254;-82
2023/07/10 08:02:43;;;;;;;10.63;9.83;;;;;;;19.65;100.00;100713.31;5015788;28;20715;-81
2023/07/10 08:05:10;;;;;;;10.97;10.17;;;;;;;19.68;100.00;100704.34;5006864;28;20698;-84
2023/07/10 08:07:36;;;;;;;11.43;10.53;;;;;;;19.72;100.00;100716.53;5000186;28;20233;-82
2023/07/10 08:10:03;;;;;;;11.93;11.00;;;;;;;19.76;100.00;100711.00;5015946;28;20626;-82
2023/07/10 08:12:30;;;;;;;10.33;9.63;;;;;;;19.84;100.00;100724.69;5017023;28;20215;-83
2023/07/10 08:14:58;;;;;;;10.43;9.53;;;;;;;19.93;100.00;100714.53;5016381;28;20205;-83
2023/07/10 08:17:25;;;;;;;11.73;10.73;;;;;;;19.81;100.00;100713.41;5019932;28;20202;-83
2023/07/10 08:19:52;;;;;;;11.80;10.90;;;;;;;19.65;100.00;100714.19;5021690;28;20242;-82
2023/07/10 08:22:19;;;;;;;12.97;11.87;;;;;;;19.63;100.00;100721.34;5014788;28;20210;-82
2023/07/10 08:24:45;;;;;;;13.67;12.63;;;;;;;19.56;100.00;100719.09;5014980;28;20203;-81
2023/07/10 08:27:11;;;;;;;14.33;13.03;;;;;;;19.58;100.00;100711.94;5015097;28;20207;-82
2023/07/10 08:29:38;;;;;;;14.23;13.13;;;;;;;19.67;100.00;100735.28;5016205;28;20223;-83
2023/07/10 08:32:07;;;;;;;14.03;12.90;;;;;;;19.74;100.00;100710.25;5020136;28;20226;-83
2023/07/10 08:34:33;;;;;;;14.07;12.87;;;;;;;19.96;100.00;100746.16;5011791;28;20211;-82
2023/07/10 08:37:01;;;;;;;13.63;12.73;;;;;;;20.07;100.00;100745.59;4996276;28;20203;-83
2023/07/10 08:39:28;;;;;;;13.17;12.17;;;;;;;20.22;100.00;100739.47;5017849;28;20207;-83
2023/07/10 08:42:00;;;;;;;12.17;11.23;;;;;;;20.39;100.00;100739.38;5016505;28;20206;-83
2023/07/10 08:44:32;;;;;;;11.43;10.63;;;;;;;20.22;100.00;100773.94;5007314;28;20206;-83
2023/07/10 08:47:04;;;;;;;10.87;10.00;;;;;;;20.20;100.00;100787.28;5015006;28;20211;-81
2023/07/10 08:49:37;;;;;;;10.83;10.03;;;;;;;20.19;100.00;100796.16;5016518;28;20263;-83
2023/07/10 08:52:08;;;;;;;11.97;10.83;;;;;;;19.99;100.00;100785.75;5018529;28;20218;-82
2023/07/10 08:54:35;;;;;;;11.83;10.97;;;;;;;20.10;100.00;100786.06;5019629;28;20217;-83
2023/07/10 08:57:15;;;;;;;10.37;9.57;;;;;;;20.29;100.00;100808.94;5020000;28;20214;-83
2023/07/10 08:59:49;;;;;;;10.70;9.90;;;;;;;20.33;100.00;100831.69;5019192;28;20311;-82
2023/07/10 09:02:21;;;;;;;10.67;9.90;;;;;;;20.35;100.00;100824.50;5018557;28;20710;-82
2023/07/10 09:04:50;;;;;;;11.73;10.93;;;;;;;20.41;100.00;100824.16;5005267;28;20200;-83
2023/07/10 09:07:18;;;;;;;11.37;10.57;;;;;;;20.49;100.00;100834.38;5000241;28;20231;-84
2023/07/10 09:09:49;;;;;;;11.63;10.83;;;;;;;20.33;100.00;100832.53;5018938;28;20782;-83
2023/07/10 09:12:21;;;;;;;12.27;11.37;;;;;;;20.01;100.00;100807.72;5018925;28;20210;-81
2023/07/10 09:14:52;;;;;;;12.70;11.03;;;;;;;20.10;100.00;100801.97;5018997;28;20203;-83
2023/07/10 09:17:28;;;;;;;11.60;10.70;;;;;;;20.15;100.00;100789.31;5018425;28;20228;-83
2023/07/10 09:19:57;;;;;;;11.40;10.57;;;;;;;20.16;100.00;100814.88;5018829;28;20703;-83
2023/07/10 09:22:24;;;;;;;11.40;10.60;;;;;;;20.16;100.00;100812.22;5018866;28;20712;-82
2023/07/10 09:24:50;;;;;;;10.70;10.00;;;;;;;20.22;100.00;100816.34;5018274;28;20207;-82
2023/07/10 09:27:17;;;;;;;10.70;9.90;;;;;;;20.34;100.00;100828.09;5017975;28;20549;-82
2023/07/10 09:29:46;;;;;;;10.63;9.83;;;;;;;20.43;100.00;100849.69;5017673;28;20229;-82
2023/07/10 09:32:15;;;;;;;11.33;10.37;;;;;;;20.57;100.00;100863.97;5009086;28;20210;-82
2023/07/10 09:34:46;;;;;;;11.77;10.70;;;;;;;20.63;100.00;100883.13;5012573;28;20572;-82
2023/07/10 09:37:17;;;;;;;10.90;10.17;;;;;;;20.56;100.00;100879.03;4997988;28;20215;-82
2023/07/10 09:39:44;;;;;;;11.97;11.07;;;;;;;20.69;100.00;100875.75;5018613;28;20222;-83
2023/07/10 09:42:15;;;;;;;12.20;11.07;;;;;;;20.73;100.00;100890.56;5019096;28;20205;-85
2023/07/10 09:44:56;;;;;;;12.13;11.23;;;;;;;20.66;100.00;100889.19;5017155;28;20207;-83
2023/07/10 09:47:23;;;;;;;11.77;10.87;;;;;;;20.58;100.00;100895.72;5025406;28;20206;-82
2023/07/10 09:49:54;;;;;;;12.33;11.17;;;;;;;20.60;100.00;100887.72;5018872;28;20231;-83
2023/07/10 09:52:25;;;;;;;12.20;11.13;;;;;;;20.68;100.00;100885.50;5026440;28;20202;-83
2023/07/10 09:54:59;;;;;;;11.83;10.90;;;;;;;21.00;100.00;100904.13;5025975;28;20213;-83
2023/07/10 09:57:26;;;;;;;11.60;10.80;;;;;;;21.25;100.00;100924.00;5029204;28;20213;-84
2023/07/10 09:59:55;;;;;;;11.33;10.40;;;;;;;21.42;100.00;100942.50;5024517;28;20228;-83
2023/07/10 10:02:33;;;;;;;10.80;10.07;;;;;;;21.39;100.00;100966.59;5020966;28;20490;-84
2023/07/10 10:05:08;;;;;;;12.23;11.27;;;;;;;21.47;100.00;100980.31;5019247;28;20211;-83
2023/07/10 10:07:44;;;;;;;11.93;10.97;;;;;;;21.33;100.00;100967.78;5018223;28;20229;-83
2023/07/10 10:10:23;;;;;;;11.23;10.33;;;;;;;21.32;100.00;100957.25;5009959;28;20717;-83
2023/07/10 10:12:55;;;;;;;10.40;9.60;;;;;;;21.48;100.00;100957.28;5011398;28;20207;-85
2023/07/10 10:15:31;;;;;;;10.93;10.03;;;;;;;21.55;100.00;100971.94;5027131;28;20671;-83
2023/07/10 10:18:01;;;;;;;9.70;8.80;;;;;;;21.57;100.00;100980.66;5017294;28;20213;-84
2023/07/10 10:20:33;;;;;;;11.57;10.57;;;;;;;21.42;100.00;100985.00;5013018;28;20234;-84
2023/07/10 10:23:01;;;;;;;11.67;10.73;;;;;;;20.81;100.00;100971.47;5016611;28;20704;-84
2023/07/10 10:25:36;;;;;;;11.83;10.93;;;;;;;20.62;100.00;100941.56;5014907;28;20212;-83
2023/07/10 10:28:22;;;;;;;10.87;9.97;;;;;;;20.74;100.00;100922.31;5026423;28;20214;-85
2023/07/10 10:30:54;;;;;;;9.53;8.63;;;;;;;20.86;100.00;100931.41;5006846;28;20234;-83
2023/07/10 10:33:30;;;;;;;8.87;8.27;;;;;;;21.23;100.00;100937.38;5008216;28;20610;-83
2023/07/10 10:36:00;;;;;;;7.90;7.30;;;;;;;21.30;97.82;101005.13;5025286;28;20206;-84
2023/07/10 10:38:39;;;;;;;7.47;6.97;;;;;;;21.50;94.98;101053.66;5018341;28;20206;-83
2023/07/10 10:41:35;;;;;;;7.67;7.07;;;;;;;21.66;94.40;101083.75;5010244;28;20230;-83
2023/07/10 10:44:09;;;;;;;6.63;6.03;;;;;;;21.96;90.75;101149.44;5013377;28;20450;-84
2023/07/10 10:46:51;;;;;;;5.33;4.93;;;;;;;22.32;88.74;101177.63;5032606;28;20199;-85
2023/07/10 10:49:38;;;;;;;5.20;4.80;;;;;;;22.37;84.45;101242.06;5009350;28;20234;-84
2023/07/10 10:52:15;;;;;;;5.00;4.60;;;;;;;22.68;83.51;101273.16;5017810;28;20218;-82
2023/07/10 10:54:51;;;;;;;3.83;3.53;;;;;;;22.80;81.15;101343.47;5019599;28;20234;-84
2023/07/10 10:57:28;;;;;;;3.50;3.20;;;;;;;23.00;76.28;101417.78;5018847;28;20219;-85
2023/07/10 11:00:05;;;;;;;3.43;3.23;;;;;;;23.16;75.81;101449.78;5016071;28;20218;-87
2023/07/10 11:02:46;;;;;;;3.70;3.40;;;;;;;23.17;73.86;101507.44;5020534;28;20212;-84
2023/07/10 11:05:19;;;;;;;3.47;3.17;;;;;;;23.30;72.78;101517.41;5011436;28;20225;-84
2023/07/10 11:07:50;;;;;;;4.17;3.43;;;;;;;23.51;70.97;101560.69;5001524;28;20215;-86
2023/07/10 11:10:30;;;;;;;3.37;2.77;;;;;;;23.57;72.02;101555.84;4992065;28;20239;-87
2023/07/10 11:12:57;;;;;;;3.37;3.07;;;;;;;23.57;74.02;101537.19;5022699;28;20214;-82
2023/07/10 11:15:24;;;;;;;3.53;2.67;;;;;;;23.77;72.90;101521.88;5015248;28;20219;-85
2023/07/10 11:17:53;;;;;;;3.27;3.03;;;;;;;23.88;72.98;101511.47;5020484;28;20213;-83